Hartford, Connecticut
Traffic Map
Current Weather Conditions
Hartford, Connecticut
Clear
Clear
12°
Feels Like: 12°
Wind Chill: 12° Ceiling: Unl
Heat Index: 12° Visibility: 10mi
Dew Point: Wind: 7mph
Humidity: 61% Direction: 10° (N)
Pressure: 29.97in Gusts: 0mph
Raw Report DataKHFD 311653Z 01006KT 10SM CLR 12/04 A2997 RMK AO2 SLP149 T01170044
Traffic Incident Summary
Active as of:
Severity:
Category:
InformationThere was an issue retrieving the traffic information for this location. Please try a different location or try again shortly.
Advertisements
Track Severe Weather on mobile